Time;durP1;ratioP1;P1;durP2;ratioP2;P2;SDS_P1;SDS_P2;PMS_P1;PMS_P2;Temp;Humidity;BMP_temperature;BMP_pressure;BME280_temperature;BME280_humidity;BME280_pressure;Samples;Min_cycle;Max_cycle;Signal;HPM_P1;HPM_P2
2023/10/13 00:00:34;;;;;;;17.58;10.32;;;18.20;99.90;;;;;;4963027;28;20063;-64
2023/10/13 00:03:00;;;;;;;16.75;11.25;;;18.40;99.90;;;;;;4967389;28;20113;-64
2023/10/13 00:05:27;;;;;;;16.47;10.83;;;18.40;99.90;;;;;;4969265;28;20775;-67
2023/10/13 00:07:53;;;;;;;16.60;11.48;;;18.20;99.90;;;;;;4960512;28;20022;-69
2023/10/13 00:10:19;;;;;;;15.82;10.77;;;18.20;99.90;;;;;;4959542;28;20047;-66
2023/10/13 00:12:49;;;;;;;14.63;11.33;;;18.20;99.90;;;;;;4968604;28;20105;-69
2023/10/13 00:15:17;;;;;;;19.50;11.90;;;18.20;99.90;;;;;;4966231;28;20098;-67
2023/10/13 00:17:42;;;;;;;17.38;12.35;;;18.30;99.90;;;;;;4959928;28;20051;-65
2023/10/13 00:20:28;;;;;;;18.80;10.97;;;18.20;99.90;;;;;;4967019;28;20073;-69
2023/10/13 00:22:56;;;;;;;20.15;12.48;;;18.10;99.90;;;;;;4962634;28;20031;-67
2023/10/13 00:25:27;;;;;;;20.48;11.98;;;18.20;99.90;;;;;;4992646;28;20034;-67
2023/10/13 00:27:52;;;;;;;17.27;11.35;;;18.20;99.90;;;;;;4964049;28;20431;-68
2023/10/13 00:30:33;;;;;;;16.07;11.27;;;18.40;99.90;;;;;;4992315;28;20059;-69
2023/10/13 00:32:59;;;;;;;22.88;12.65;;;18.40;99.90;;;;;;4960171;28;20286;-69
2023/10/13 00:35:29;;;;;;;15.77;11.90;;;18.40;99.90;;;;;;4960724;28;20045;-69
2023/10/13 00:38:03;;;;;;;21.38;12.00;;;18.40;99.90;;;;;;4957956;28;20078;-65
2023/10/13 00:43:31;;;;;;;22.33;12.27;;;18.60;99.90;;;;;;4961740;28;20026;-66
2023/10/13 00:46:33;;;;;;;17.73;11.70;;;18.60;99.90;;;;;;4956625;28;20050;-68
2023/10/13 00:48:51;;;;;;;21.38;11.27;;;18.50;99.90;;;;;;4980160;28;20038;-67
2023/10/13 00:51:22;;;;;;;21.80;12.38;;;18.60;99.90;;;;;;4970230;28;20026;-69
2023/10/13 00:53:48;;;;;;;16.75;11.40;;;18.60;99.90;;;;;;4965694;28;20035;-68
2023/10/13 00:56:19;;;;;;;17.55;12.55;;;18.40;99.90;;;;;;4956215;28;20025;-69
2023/10/13 00:58:46;;;;;;;19.33;11.80;;;18.40;99.90;;;;;;4958576;28;20618;-68
2023/10/13 01:01:18;;;;;;;22.30;12.23;;;18.50;99.90;;;;;;4963256;28;20122;-62
2023/10/13 01:03:55;;;;;;;16.15;11.90;;;18.50;99.90;;;;;;4958528;28;20082;-63
2023/10/13 01:06:25;;;;;;;17.23;12.13;;;18.50;99.90;;;;;;4956696;28;20031;-63
2023/10/13 01:08:59;;;;;;;19.30;11.93;;;18.40;99.90;;;;;;4954796;28;20097;-65
2023/10/13 01:11:27;;;;;;;17.30;10.85;;;18.30;99.90;;;;;;4965347;28;20042;-63
2023/10/13 01:13:53;;;;;;;21.80;12.88;;;18.40;99.90;;;;;;4959003;28;20034;-64
2023/10/13 01:16:23;;;;;;;15.90;12.23;;;18.40;99.90;;;;;;4952390;28;20141;-65
2023/10/13 01:18:49;;;;;;;17.67;11.57;;;18.40;99.90;;;;;;4959289;28;20030;-62
2023/10/13 01:21:20;;;;;;;16.90;11.75;;;18.40;99.90;;;;;;4963032;28;20039;-63
2023/10/13 01:23:47;;;;;;;17.08;11.27;;;18.50;99.90;;;;;;4958683;28;20122;-65
2023/10/13 01:26:21;;;;;;;14.70;10.93;;;18.40;99.90;;;;;;4958521;28;20101;-68
2023/10/13 01:28:47;;;;;;;15.82;11.48;;;18.40;99.90;;;;;;4987859;28;20105;-68
2023/10/13 01:31:24;;;;;;;20.00;11.35;;;18.50;99.90;;;;;;4962887;28;20020;-67
2023/10/13 01:33:53;;;;;;;17.20;11.07;;;18.50;99.90;;;;;;4959179;28;20039;-65
2023/10/13 01:36:20;;;;;;;22.85;11.95;;;18.50;99.90;;;;;;4958567;28;20281;-64
2023/10/13 01:38:46;;;;;;;19.25;12.23;;;18.50;99.90;;;;;;4962266;28;20515;-63
2023/10/13 01:41:13;;;;;;;15.18;10.73;;;18.40;99.90;;;;;;4961368;28;20042;-63
2023/10/13 01:43:39;;;;;;;18.33;10.27;;;18.60;99.90;;;;;;4960494;28;20039;-62
2023/10/13 01:46:05;;;;;;;16.80;10.67;;;18.50;99.90;;;;;;4962588;28;20283;-68
2023/10/13 01:48:32;;;;;;;21.20;11.47;;;18.50;99.90;;;;;;4964854;28;20290;-67
2023/10/13 01:51:02;;;;;;;16.13;11.18;;;18.50;99.90;;;;;;4960627;28;20053;-65
2023/10/13 01:53:28;;;;;;;18.38;11.40;;;18.40;99.90;;;;;;4963195;28;20411;-68
2023/10/13 01:55:56;;;;;;;;;;;18.40;99.90;;;;;;4960628;28;20035;-65
2023/10/13 01:58:25;;;;;;;15.13;12.25;;;18.40;99.90;;;;;;4952056;28;19920;-68
2023/10/13 02:00:50;;;;;;;15.82;11.55;;;18.40;99.90;;;;;;4957689;28;20035;-69
2023/10/13 02:03:16;;;;;;;22.77;12.37;;;18.40;99.90;;;;;;4962306;28;20487;-65
2023/10/13 02:05:49;;;;;;;16.40;11.63;;;18.50;99.90;;;;;;4958337;28;20062;-67
2023/10/13 02:08:24;;;;;;;18.38;11.30;;;18.40;99.90;;;;;;4954515;28;20077;-63
2023/10/13 02:10:51;;;;;;;15.63;10.98;;;18.40;99.90;;;;;;4962739;28;20038;-66
2023/10/13 02:13:18;;;;;;;;;;;18.30;99.90;;;;;;4962876;28;20499;-65
2023/10/13 02:15:44;;;;;;;19.42;11.85;;;18.40;99.90;;;;;;4955343;28;20013;-64
2023/10/13 02:18:13;;;;;;;15.07;11.65;;;18.30;99.90;;;;;;4956385;28;20070;-68
2023/10/13 02:20:45;;;;;;;16.55;11.27;;;18.30;99.90;;;;;;4965657;28;20031;-68
2023/10/13 02:23:11;;;;;;;19.52;12.02;;;18.20;99.90;;;;;;4961796;28;20030;-69
2023/10/13 02:25:45;;;;;;;15.30;11.98;;;18.20;99.90;;;;;;4994100;28;20049;-70
2023/10/13 02:28:14;;;;;;;19.38;12.88;;;18.20;99.90;;;;;;4967176;28;20043;-66
2023/10/13 02:30:50;;;;;;;19.15;11.73;;;18.10;99.90;;;;;;4966044;28;20050;-70
2023/10/13 02:33:21;;;;;;;21.23;12.80;;;18.30;99.90;;;;;;4965802;28;20035;-64
2023/10/13 02:35:54;;;;;;;17.08;12.07;;;18.30;99.90;;;;;;4963797;28;20086;-66
2023/10/13 02:38:28;;;;;;;22.95;12.93;;;18.20;99.90;;;;;;4970491;28;20422;-64
2023/10/13 02:40:54;;;;;;;20.25;11.50;;;18.20;99.90;;;;;;4964811;28;20502;-66
2023/10/13 02:43:23;;;;;;;15.52;12.23;;;18.10;99.90;;;;;;4960505;28;20446;-69
2023/10/13 02:45:58;;;;;;;21.50;13.52;;;18.20;99.90;;;;;;4970232;28;20030;-64
2023/10/13 02:48:25;;;;;;;16.55;12.80;;;18.30;99.90;;;;;;4964195;28;20037;-67
2023/10/13 02:50:56;;;;;;;17.00;12.00;;;18.20;99.90;;;;;;4960681;28;20046;-66
2023/10/13 02:53:22;;;;;;;18.10;12.07;;;18.10;99.90;;;;;;4964857;28;20527;-63
2023/10/13 02:56:07;;;;;;;22.40;13.83;;;18.10;99.90;;;;;;4971361;28;20129;-63
2023/10/13 02:58:39;;;;;;;20.63;13.15;;;18.10;99.90;;;;;;4963661;28;20408;-64
2023/10/13 03:01:17;;;;;;;23.48;13.85;;;18.10;99.90;;;;;;4959382;28;20325;-69
2023/10/13 03:03:54;;;;;;;17.77;13.23;;;18.10;99.90;;;;;;4964170;28;20035;-69
2023/10/13 03:06:40;;;;;;;19.03;13.23;;;18.20;99.90;;;;;;4970310;28;20038;-63
2023/10/13 03:09:19;;;;;;;18.67;13.30;;;18.10;99.90;;;;;;4968991;28;20093;-68
2023/10/13 03:11:48;;;;;;;21.10;13.65;;;18.10;99.90;;;;;;4960185;28;20031;-62
2023/10/13 03:14:39;;;;;;;26.40;14.85;;;18.10;99.90;;;;;;4962747;28;20114;-65
2023/10/13 03:17:05;;;;;;;18.75;13.77;;;18.00;99.90;;;;;;4964456;28;20059;-65
2023/10/13 03:19:34;;;;;;;;;;;18.00;99.90;;;;;;4957801;28;20053;-65
2023/10/13 03:22:11;;;;;;;19.20;14.05;;;18.00;99.90;;;;;;4964725;28;20350;-63
2023/10/13 03:24:47;;;;;;;18.65;13.73;;;18.00;99.90;;;;;;4960380;28;20034;-65
2023/10/13 03:27:17;;;;;;;19.52;13.73;;;18.00;99.90;;;;;;4964419;28;20051;-63
2023/10/13 03:29:54;;;;;;;19.20;15.15;;;17.90;99.90;;;;;;4959158;28;20530;-66
2023/10/13 03:32:20;;;;;;;18.20;13.87;;;17.90;99.90;;;;;;4961666;28;20279;-65
2023/10/13 03:37:40;;;;;;;20.33;14.00;;;18.00;99.90;;;;;;4957907;28;20039;-69
2023/10/13 03:45:48;;;;;;;22.58;16.08;;;17.90;99.90;;;;;;4968827;28;20676;-65
2023/10/13 03:51:03;;;;;;;25.00;15.18;;;17.90;99.90;;;;;;4965306;28;20047;-67
2023/10/13 03:53:35;;;;;;;21.92;14.80;;;17.80;99.90;;;;;;4964844;28;20027;-65
2023/10/13 03:56:08;;;;;;;22.20;14.98;;;17.90;99.90;;;;;;4962953;28;20455;-66
2023/10/13 03:58:47;;;;;;;21.02;15.82;;;17.90;99.90;;;;;;4963035;28;20027;-64
2023/10/13 04:01:15;;;;;;;26.42;15.23;;;17.90;99.90;;;;;;4962870;28;20123;-68
2023/10/13 04:17:13;;;;;;;23.60;13.48;;;17.80;99.90;;;;;;4961194;28;20027;-64
2023/10/13 04:25:38;;;;;;;24.60;14.00;;;17.60;99.90;;;;;;4967711;28;20031;-65
2023/10/13 04:31:06;;;;;;;20.60;14.33;;;17.50;99.90;;;;;;4957588;28;20141;-69
2023/10/13 04:33:35;;;;;;;21.27;14.65;;;17.50;99.90;;;;;;4965013;28;20034;-64
2023/10/13 04:41:57;;;;;;;25.95;14.95;;;17.40;99.90;;;;;;4962635;28;20034;-67
2023/10/13 04:44:48;;;;;;;24.02;14.38;;;17.40;99.90;;;;;;4990714;28;20081;-68
2023/10/13 04:47:17;;;;;;;20.80;14.75;;;17.30;99.90;;;;;;4961800;28;20070;-68
2023/10/13 05:05:21;;;;;;;23.23;15.52;;;17.40;99.90;;;;;;4961229;28;20059;-67
2023/10/13 05:46:35;;;;;;;25.55;15.65;;;17.00;99.90;;;;;;4957836;28;20126;-62
2023/10/13 05:51:33;;;;;;;22.85;16.27;;;17.10;99.90;;;;;;4961350;28;20035;-64
2023/10/13 06:30:04;;;;;;;29.05;15.40;;;17.30;99.90;;;;;;4960734;28;20577;-63
2023/10/13 06:32:30;;;;;;;23.08;15.23;;;17.30;99.90;;;;;;4959582;28;20133;-63
2023/10/13 06:34:57;;;;;;;25.70;16.67;;;17.20;99.90;;;;;;4964300;28;20034;-66
2023/10/13 06:37:30;;;;;;;26.15;15.55;;;17.30;99.90;;;;;;4959078;28;20031;-66
2023/10/13 06:39:59;;;;;;;22.48;16.30;;;17.20;99.90;;;;;;4960418;28;20027;-62
2023/10/13 06:42:28;;;;;;;30.17;16.40;;;17.20;99.90;;;;;;4959016;28;20041;-63
2023/10/13 06:44:54;;;;;;;29.35;17.25;;;17.30;99.90;;;;;;4962834;28;20526;-63
2023/10/13 06:47:21;;;;;;;;;;;17.30;99.90;;;;;;4958883;28;20054;-63
2023/10/13 06:49:51;;;;;;;26.73;15.75;;;17.30;99.90;;;;;;4964860;28;19929;-67
2023/10/13 06:52:17;;;;;;;28.70;16.23;;;17.40;99.90;;;;;;4962981;28;20035;-64
2023/10/13 06:54:43;;;;;;;22.67;15.35;;;17.50;99.90;;;;;;4957110;28;20038;-67
2023/10/13 06:57:20;;;;;;;26.17;15.60;;;17.50;99.90;;;;;;4959065;28;20399;-65
2023/10/13 06:59:46;;;;;;;22.65;15.68;;;17.50;99.90;;;;;;4964204;28;20042;-64
2023/10/13 07:02:21;;;;;;;27.95;15.02;;;17.70;99.90;;;;;;4959307;28;20023;-64
2023/10/13 07:04:47;;;;;;;25.25;16.45;;;17.70;99.90;;;;;;4961228;28;20038;-65
2023/10/13 07:07:15;;;;;;;22.48;15.38;;;18.00;99.90;;;;;;4966957;28;20045;-64
2023/10/13 07:09:55;;;;;;;25.02;15.93;;;18.00;99.90;;;;;;4958751;28;20086;-65
2023/10/13 07:12:27;;;;;;;18.85;14.25;;;18.00;99.90;;;;;;4958413;28;20030;-64
2023/10/13 07:17:44;;;;;;;22.20;13.68;;;20.70;99.90;;;;;;4953662;28;20085;-63
2023/10/13 07:20:23;;;;;;;17.80;13.32;;;20.90;99.90;;;;;;4953233;28;20026;-64
2023/10/13 07:23:02;;;;;;;18.45;12.18;;;21.30;99.90;;;;;;4963266;28;20537;-63
2023/10/13 07:25:40;;;;;;;20.85;12.75;;;20.80;99.90;;;;;;4961702;28;20027;-66
2023/10/13 07:28:08;;;;;;;;;;;20.70;99.90;;;;;;4957231;28;20048;-65
2023/10/13 07:31:37;;;;;;;18.00;12.82;;;19.80;99.90;;;;;;4961074;28;19973;-66
2023/10/13 07:33:31;;;;;;;21.50;12.63;;;19.30;99.90;;;;;;4961439;28;21386;-64
2023/10/13 07:36:10;;;;;;;21.48;13.95;;;19.10;99.90;;;;;;4956295;28;20517;-64
2023/10/13 07:38:37;;;;;;;18.75;14.20;;;19.00;99.90;;;;;;4964863;28;20059;-63
2023/10/13 07:41:07;;;;;;;22.80;12.98;;;19.10;99.90;;;;;;4961966;28;20070;-63
2023/10/13 07:43:33;;;;;;;17.42;13.30;;;19.30;99.90;;;;;;4963946;28;20502;-65
2023/10/13 07:46:06;;;;;;;17.73;13.80;;;19.30;99.90;;;;;;4964828;28;20042;-64
2023/10/13 07:48:33;;;;;;;20.58;14.10;;;19.80;99.90;;;;;;4960002;28;20035;-65
2023/10/13 07:51:26;;;;;;;15.50;11.65;;;20.90;99.90;;;;;;4991882;28;20456;-63
2023/10/13 07:53:52;;;;;;;17.92;11.77;;;22.70;97.30;;;;;;4961018;28;20033;-66
2023/10/13 07:56:18;;;;;;;15.02;12.57;;;23.00;95.00;;;;;;4967937;28;20529;-64
2023/10/13 08:01:45;;;;;;;13.10;11.55;;;23.50;92.70;;;;;;4961719;28;20047;-64
2023/10/13 08:04:22;;;;;;;15.88;11.43;;;23.80;91.10;;;;;;4965791;28;20041;-65
2023/10/13 08:06:48;;;;;;;20.73;11.38;;;24.50;90.30;;;;;;4961054;28;20499;-65
2023/10/13 08:09:40;;;;;;;17.02;11.63;;;24.40;90.50;;;;;;4965409;28;20070;-66
2023/10/13 08:12:10;;;;;;;15.15;10.60;;;24.80;87.00;;;;;;4959726;28;20043;-64
2023/10/13 08:14:38;;;;;;;15.63;10.77;;;25.50;86.50;;;;;;4963435;28;20415;-66
2023/10/13 08:17:07;;;;;;;17.10;10.90;;;26.10;85.60;;;;;;4963110;28;20023;-67
2023/10/13 08:19:55;;;;;;;18.83;9.52;;;25.80;84.50;;;;;;4996302;28;20757;-63
2023/10/13 08:45:20;;;;;;;13.55;8.95;;;25.90;80.90;;;;;;4964540;28;20566;-64
2023/10/13 08:56:14;;;;;;;12.55;8.55;;;27.30;75.90;;;;;;4958200;28;20444;-65
2023/10/13 09:04:38;;;;;;;14.35;9.30;;;26.30;78.30;;;;;;4964875;28;20065;-68
2023/10/13 09:14:57;;;;;;;10.20;8.38;;;27.10;74.30;;;;;;4961170;28;20030;-69
2023/10/13 09:25:53;;;;;;;13.88;8.80;;;26.40;74.40;;;;;;4972056;28;20054;-68
2023/10/13 09:28:25;;;;;;;13.48;7.47;;;25.80;78.80;;;;;;4964843;28;20030;-67
2023/10/13 09:30:56;;;;;;;11.95;7.93;;;25.40;78.20;;;;;;4959908;28;20057;-65
2023/10/13 09:33:39;;;;;;;17.63;7.80;;;25.10;79.50;;;;;;4960287;28;20093;-65
2023/10/13 09:36:07;;;;;;;14.82;7.93;;;24.40;79.60;;;;;;4962392;28;20110;-65
2023/10/13 09:38:34;;;;;;;9.90;7.38;;;24.20;81.80;;;;;;4960008;28;20041;-66
2023/10/13 09:41:17;;;;;;;12.40;7.65;;;24.40;80.70;;;;;;4957551;28;20113;-64
2023/10/13 09:43:44;;;;;;;13.45;7.68;;;24.30;83.00;;;;;;4949623;28;20042;-64
2023/10/13 09:46:17;;;;;;;12.93;7.25;;;24.20;82.00;;;;;;4963295;28;20042;-66
2023/10/13 09:48:46;;;;;;;10.05;7.07;;;23.90;81.60;;;;;;4975139;28;20569;-67
2023/10/13 09:51:21;;;;;;;11.40;6.93;;;23.70;82.30;;;;;;4963356;28;20027;-67
2023/10/13 09:54:09;;;;;;;13.07;7.03;;;23.70;81.90;;;;;;4962037;28;20050;-65
2023/10/13 09:56:51;;;;;;;;;;;23.50;84.30;;;;;;4961583;28;20031;-63
2023/10/13 09:59:24;;;;;;;11.07;6.55;;;23.20;82.60;;;;;;4964404;28;19961;-65
2023/10/13 10:01:51;;;;;;;10.43;6.35;;;23.00;84.90;;;;;;4963245;28;20118;-64
2023/10/13 10:04:19;;;;;;;15.35;7.05;;;23.10;83.30;;;;;;4965205;28;20037;-65
2023/10/13 10:07:11;;;;;;;14.38;7.00;;;23.00;83.40;;;;;;4960106;28;20081;-64
2023/10/13 10:09:43;;;;;;;16.85;6.93;;;23.10;83.70;;;;;;4969542;28;20050;-66
2023/10/13 10:12:30;;;;;;;11.85;6.88;;;23.10;83.10;;;;;;4961252;28;20050;-65
2023/10/13 10:15:14;;;;;;;16.30;6.05;;;23.00;84.50;;;;;;4962097;28;20415;-64
2023/10/13 10:17:42;;;;;;;9.32;6.07;;;23.00;86.60;;;;;;4960152;28;20498;-65
2023/10/13 10:20:32;;;;;;;14.25;8.13;;;23.10;83.00;;;;;;4962553;28;20034;-65
2023/10/13 10:22:59;;;;;;;11.57;6.90;;;23.00;85.60;;;;;;4959057;28;20046;-65
2023/10/13 10:25:34;;;;;;;15.60;6.25;;;23.10;84.10;;;;;;4961614;28;20061;-65
2023/10/13 10:28:07;;;;;;;12.52;7.63;;;23.00;86.00;;;;;;4956273;28;20034;-65
2023/10/13 10:30:35;;;;;;;13.57;6.80;;;22.80;84.30;;;;;;4956481;28;20511;-64
2023/10/13 10:33:23;;;;;;;12.05;6.80;;;22.90;83.80;;;;;;4958080;28;20038;-64
2023/10/13 10:35:59;;;;;;;14.05;7.50;;;22.80;84.70;;;;;;4956918;28;20054;-64
2023/10/13 10:38:32;;;;;;;12.88;7.95;;;22.70;86.00;;;;;;4960697;28;20039;-64
2023/10/13 10:41:04;;;;;;;11.25;6.80;;;22.70;84.30;;;;;;4960402;28;20031;-65
2023/10/13 10:43:46;;;;;;;14.02;6.90;;;22.70;84.80;;;;;;4957876;28;20031;-65
2023/10/13 10:46:14;;;;;;;14.38;6.85;;;22.80;85.10;;;;;;4960559;28;20039;-64
2023/10/13 10:48:43;;;;;;;8.77;6.72;;;22.80;84.20;;;;;;4960543;28;20026;-65
2023/10/13 10:51:22;;;;;;;15.05;7.40;;;22.70;84.30;;;;;;4966711;28;20462;-63
2023/10/13 10:53:52;;;;;;;9.98;7.22;;;22.70;85.30;;;;;;4960159;28;20036;-63
2023/10/13 10:58:56;;;;;;;15.07;6.63;;;22.80;84.50;;;;;;4965129;28;20066;-64
2023/10/13 11:01:33;;;;;;;9.05;7.15;;;22.80;86.70;;;;;;4966765;28;20067;-65
2023/10/13 11:07:00;;;;;;;12.63;7.35;;;22.90;86.10;;;;;;4942372;28;20661;-64
2023/10/13 11:09:45;;;;;;;13.38;8.00;;;22.90;86.40;;;;;;4968315;28;20129;-65
2023/10/13 11:12:15;;;;;;;12.70;6.90;;;23.00;85.00;;;;;;4963270;28;20035;-64
2023/10/13 11:14:51;;;;;;;11.63;7.75;;;22.90;85.40;;;;;;4959858;28;20041;-64
2023/10/13 11:17:26;;;;;;;13.67;7.57;;;22.90;85.20;;;;;;4961300;28;20034;-62
2023/10/13 11:19:51;;;;;;;9.13;6.88;;;22.80;85.90;;;;;;4962986;28;20869;-63
2023/10/13 11:22:41;;;;;;;10.93;7.13;;;22.70;87.90;;;;;;4997555;28;20034;-64
2023/10/13 11:25:10;;;;;;;10.25;7.45;;;22.80;86.90;;;;;;4962587;28;20049;-63
2023/10/13 11:27:44;;;;;;;15.73;7.18;;;22.90;88.00;;;;;;4961481;28;20086;-64
2023/10/13 11:30:20;;;;;;;12.57;7.40;;;22.90;85.50;;;;;;4989696;28;20086;-63
2023/10/13 11:33:07;;;;;;;11.70;7.32;;;22.90;83.70;;;;;;4963180;28;20050;-66
2023/10/13 11:38:27;;;;;;;14.98;7.03;;;22.90;84.60;;;;;;4966125;28;19976;-63
2023/10/13 11:48:46;;;;;;;18.48;7.22;;;23.10;85.00;;;;;;4960498;28;20531;-66
2023/10/13 11:51:17;;;;;;;16.92;7.43;;;23.20;83.80;;;;;;4964475;28;20828;-66
2023/10/13 11:53:51;;;;;;;11.50;7.25;;;23.10;85.90;;;;;;4960768;28;20034;-65
2023/10/13 11:56:20;;;;;;;12.95;7.30;;;23.10;85.10;;;;;;4967068;28;20039;-66
2023/10/13 11:58:47;;;;;;;16.48;6.68;;;23.30;86.20;;;;;;4960507;28;20582;-66
2023/10/13 12:06:35;;;;;;;14.90;6.07;;;23.30;84.10;;;;;;4963205;28;20136;-63
2023/10/13 12:11:48;;;;;;;11.40;6.53;;;23.40;84.70;;;;;;4963707;28;20149;-64
2023/10/13 12:14:19;;;;;;;11.13;6.65;;;23.50;84.60;;;;;;4964636;28;20031;-62
2023/10/13 12:16:55;;;;;;;13.25;7.05;;;23.60;83.50;;;;;;4964103;28;20041;-62
2023/10/13 12:19:24;;;;;;;17.00;6.50;;;23.60;83.50;;;;;;4957165;28;20028;-65
2023/10/13 12:21:54;;;;;;;15.43;6.70;;;23.50;82.10;;;;;;4959125;28;20515;-63
2023/10/13 12:24:31;;;;;;;17.35;6.10;;;23.50;82.10;;;;;;4958054;28;20106;-64
2023/10/13 12:26:57;;;;;;;;;;;23.50;80.30;;;;;;4959003;28;20051;-64
2023/10/13 12:29:29;;;;;;;10.60;6.35;;;23.50;80.80;;;;;;4962583;28;20325;-62
2023/10/13 12:32:08;;;;;;;18.35;6.70;;;23.60;82.00;;;;;;4955861;28;20511;-62
2023/10/13 12:34:57;;;;;;;16.20;7.57;;;23.70;80.80;;;;;;4961995;28;20070;-63
2023/10/13 12:37:38;;;;;;;8.40;6.15;;;23.70;80.10;;;;;;4962597;28;20026;-63
2023/10/13 12:49:17;;;;;;;34.20;7.22;;;23.80;81.10;;;;;;4958402;28;20414;-63
2023/10/13 12:51:40;;;;;;;14.95;7.10;;;23.70;81.20;;;;;;4959047;28;20047;-62
2023/10/13 12:54:19;;;;;;;12.70;6.72;;;23.70;81.60;;;;;;4993644;28;20026;-64
2023/10/13 12:56:45;;;;;;;7.50;6.03;;;23.90;81.30;;;;;;4965384;28;20039;-63
2023/10/13 12:59:14;;;;;;;19.05;7.28;;;23.90;81.70;;;;;;4960042;28;20027;-65
2023/10/13 13:01:44;;;;;;;17.55;6.75;;;23.90;80.10;;;;;;4960351;28;20133;-65
2023/10/13 13:04:20;;;;;;;17.98;6.90;;;23.90;80.60;;;;;;4955608;28;20439;-63
2023/10/13 13:06:49;;;;;;;20.23;6.78;;;23.80;80.40;;;;;;4963358;28;20039;-62
2023/10/13 13:09:15;;;;;;;17.65;6.15;;;23.80;80.10;;;;;;4957443;28;20034;-62
2023/10/13 13:11:40;;;;;;;11.23;5.57;;;23.80;79.40;;;;;;4958219;28;20043;-64
2023/10/13 13:14:07;;;;;;;17.65;7.55;;;23.80;79.90;;;;;;4967943;28;20033;-63
2023/10/13 13:16:34;;;;;;;18.30;5.88;;;23.80;79.60;;;;;;4961720;28;20472;-65
2023/10/13 13:19:03;;;;;;;;;;;23.80;80.30;;;;;;4954245;28;20030;-63
2023/10/13 13:21:29;;;;;;;15.38;6.40;;;23.80;79.80;;;;;;4955169;28;19930;-63
2023/10/13 13:23:54;;;;;;;14.48;7.45;;;23.80;79.10;;;;;;4957868;28;20042;-64
2023/10/13 13:26:21;;;;;;;13.00;6.43;;;23.80;79.80;;;;;;4959111;28;20074;-63
2023/10/13 13:28:50;;;;;;;25.92;6.50;;;23.70;80.00;;;;;;4953098;28;20487;-65
2023/10/13 13:31:19;;;;;;;20.38;8.70;;;23.80;78.60;;;;;;4964187;28;20161;-65
2023/10/13 13:33:44;;;;;;;18.38;7.10;;;23.80;79.90;;;;;;4961943;28;20380;-65
2023/10/13 13:36:15;;;;;;;23.43;7.37;;;23.80;80.20;;;;;;4956827;28;20037;-63
2023/10/13 13:38:41;;;;;;;16.48;8.45;;;23.80;79.80;;;;;;4959200;28;20294;-63
2023/10/13 13:41:17;;;;;;;15.20;7.45;;;23.70;80.00;;;;;;4961345;28;20130;-62
2023/10/13 13:46:27;;;;;;;14.52;7.10;;;23.70;80.00;;;;;;4965625;28;20031;-65
2023/10/13 13:49:00;;;;;;;11.88;7.15;;;23.70;79.30;;;;;;4961288;28;20039;-65
2023/10/13 13:51:30;;;;;;;19.67;6.45;;;23.80;80.00;;;;;;4959873;28;20118;-64
2023/10/13 13:53:57;;;;;;;11.95;7.18;;;23.80;78.40;;;;;;4955328;28;20027;-65
2023/10/13 13:56:28;;;;;;;12.85;6.93;;;23.70;79.40;;;;;;4958248;28;20406;-64
2023/10/13 13:58:55;;;;;;;9.55;5.93;;;23.80;78.90;;;;;;4954934;28;20033;-66
2023/10/13 14:01:21;;;;;;;20.48;6.97;;;23.80;79.30;;;;;;4956852;28;20031;-64
2023/10/13 14:03:51;;;;;;;12.02;6.10;;;23.80;76.90;;;;;;4955792;28;20063;-64
2023/10/13 14:06:26;;;;;;;10.65;6.13;;;23.80;78.50;;;;;;4990565;28;20039;-66
2023/10/13 14:08:56;;;;;;;18.55;7.15;;;23.80;77.90;;;;;;4941104;28;20131;-65
2023/10/13 14:16:50;;;;;;;13.10;6.15;;;23.80;77.30;;;;;;4908974;28;20502;-66
2023/10/13 14:19:26;;;;;;;17.08;6.68;;;23.80;78.60;;;;;;4944203;28;20050;-63
2023/10/13 14:21:56;;;;;;;12.97;5.90;;;23.70;77.50;;;;;;4958934;28;20546;-65
2023/10/13 14:24:33;;;;;;;8.93;6.47;;;23.80;77.40;;;;;;4963921;28;20030;-65
2023/10/13 14:27:07;;;;;;;;;;;23.70;78.20;;;;;;4965364;28;20034;-66
2023/10/13 14:29:33;;;;;;;10.45;6.40;;;23.80;77.50;;;;;;4961355;28;19962;-63
2023/10/13 14:31:59;;;;;;;13.40;6.05;;;23.70;78.70;;;;;;4963931;28;20034;-64
2023/10/13 14:34:26;;;;;;;12.30;6.60;;;23.70;78.70;;;;;;4962837;28;20376;-63
2023/10/13 14:36:54;;;;;;;12.98;6.65;;;23.70;77.70;;;;;;4964864;28;20287;-63
2023/10/13 14:39:20;;;;;;;19.75;6.22;;;23.70;78.60;;;;;;4968752;28;20117;-67
2023/10/13 14:41:47;;;;;;;13.13;6.57;;;23.80;78.20;;;;;;4963461;28;20052;-64
2023/10/13 14:44:14;;;;;;;10.40;6.45;;;23.80;77.80;;;;;;4965465;28;20097;-64
2023/10/13 14:46:39;;;;;;;17.55;6.20;;;23.70;78.10;;;;;;4098787;28;10000924;-64
2023/10/13 14:49:06;;;;;;;14.65;6.70;;;23.80;78.50;;;;;;4989759;28;20030;-64
2023/10/13 14:51:31;;;;;;;16.58;6.25;;;23.70;77.90;;;;;;4992223;28;20565;-64
2023/10/13 14:53:59;;;;;;;17.40;6.93;;;23.70;78.70;;;;;;4991887;28;20022;-66
2023/10/13 14:56:26;;;;;;;15.15;6.30;;;23.70;79.40;;;;;;4988687;28;20438;-64
2023/10/13 14:58:53;;;;;;;14.38;5.95;;;23.70;79.00;;;;;;4988861;28;20028;-64
2023/10/13 15:01:21;;;;;;;11.63;5.03;;;23.70;77.70;;;;;;4117405;28;10000438;-65
2023/10/13 15:03:58;;;;;;;10.80;5.91;;;23.70;77.60;;;;;;2749943;28;10002684;-67
2023/10/13 15:06:28;;;;;;;10.68;5.20;;;23.80;78.20;;;;;;4133213;28;10000782;-66
2023/10/13 15:08:55;;;;;;;6.90;5.05;;;23.70;78.70;;;;;;4114064;28;10000666;-66
2023/10/13 15:11:37;;;;;;;13.25;5.63;;;23.70;77.90;;;;;;4360519;28;10001330;-66
2023/10/13 15:14:06;;;;;;;10.48;5.35;;;23.60;77.60;;;;;;4989494;28;20333;-67
2023/10/13 15:16:33;;;;;;;10.90;5.93;;;23.60;78.00;;;;;;4986708;28;20026;-66
2023/10/13 15:19:00;;;;;;;10.25;6.22;;;23.50;79.40;;;;;;4985932;28;20084;-66
2023/10/13 15:21:34;;;;;;;;;;;23.30;79.10;;;;;;4116288;28;10000793;-65
2023/10/13 15:24:03;;;;;;;10.50;6.00;;;23.20;79.70;;;;;;4988914;28;19916;-66
2023/10/13 15:26:37;;;;;;;11.07;5.90;;;23.00;80.40;;;;;;4988580;28;20034;-66
2023/10/13 15:29:09;;;;;;;9.63;5.97;;;23.00;80.60;;;;;;4989705;28;20038;-66
2023/10/13 15:34:06;;;;;;;10.35;6.05;;;22.80;81.80;;;;;;4986812;28;20118;-65
2023/10/13 15:36:33;;;;;;;20.15;6.82;;;22.80;82.10;;;;;;4991350;28;20140;-66
2023/10/13 15:39:00;;;;;;;12.93;5.70;;;22.90;82.10;;;;;;4990829;28;20029;-65
2023/10/13 15:41:27;;;;;;;9.52;5.75;;;23.00;81.40;;;;;;3247099;28;10000882;-66
2023/10/13 15:43:57;;;;;;;12.58;5.20;;;23.10;81.40;;;;;;2546079;28;10001391;-66
2023/10/13 15:46:23;;;;;;;13.13;5.33;;;23.10;81.60;;;;;;3256082;28;10000651;-66
2023/10/13 15:48:50;;;;;;;12.45;6.07;;;23.10;81.60;;;;;;4982407;28;20026;-63
2023/10/13 15:51:16;;;;;;;10.35;5.75;;;23.10;82.20;;;;;;4980324;28;20570;-64
2023/10/13 15:53:43;;;;;;;13.30;5.15;;;23.00;82.60;;;;;;3262078;28;10000692;-62
2023/10/13 15:56:12;;;;;;;14.30;6.65;;;23.00;82.50;;;;;;4988654;28;20034;-63
2023/10/13 15:58:47;;;;;;;19.98;6.15;;;23.00;82.30;;;;;;4982701;28;20773;-63
2023/10/13 16:01:13;;;;;;;14.45;5.72;;;23.00;82.80;;;;;;4990462;28;20753;-63
2023/10/13 16:03:43;;;;;;;17.33;6.10;;;22.90;84.50;;;;;;4987053;28;20566;-63
2023/10/13 16:06:10;;;;;;;11.48;5.97;;;22.90;83.40;;;;;;4986642;28;20384;-63
2023/10/13 16:08:42;;;;;;;10.07;5.75;;;22.80;84.00;;;;;;4983732;28;20066;-66
2023/10/13 16:11:13;;;;;;;12.30;5.82;;;22.80;83.90;;;;;;4984537;28;20384;-63
2023/10/13 16:13:40;;;;;;;20.30;5.80;;;22.70;83.90;;;;;;4986229;28;20034;-66
2023/10/13 16:16:06;;;;;;;11.63;6.00;;;22.70;85.30;;;;;;4986755;28;20034;-64
2023/10/13 16:18:35;;;;;;;13.07;6.50;;;22.60;84.40;;;;;;4986168;28;20077;-63
2023/10/13 16:21:03;;;;;;;12.07;5.82;;;22.60;84.90;;;;;;4985411;28;20521;-65
2023/10/13 16:23:30;;;;;;;11.05;6.85;;;22.40;86.10;;;;;;4987039;28;20118;-63
2023/10/13 16:25:59;;;;;;;17.80;6.50;;;22.20;87.00;;;;;;4992551;28;20044;-63
2023/10/13 16:28:25;;;;;;;12.77;6.07;;;22.20;86.80;;;;;;4989488;28;20046;-63
2023/10/13 16:30:53;;;;;;;11.40;6.38;;;22.20;87.10;;;;;;4987386;28;20150;-64
2023/10/13 16:33:20;;;;;;;19.35;6.70;;;22.20;87.20;;;;;;4984286;28;20042;-63
2023/10/13 16:35:46;;;;;;;19.15;6.07;;;22.20;86.60;;;;;;4986500;28;20034;-63
2023/10/13 16:38:11;;;;;;;17.50;6.20;;;22.20;86.80;;;;;;4985933;28;20032;-63
2023/10/13 16:40:40;;;;;;;21.30;5.87;;;22.10;86.80;;;;;;4986468;28;20030;-62
2023/10/13 16:43:07;;;;;;;12.60;6.07;;;22.00;87.90;;;;;;4988897;28;20058;-63
2023/10/13 16:45:44;;;;;;;14.07;6.30;;;22.00;87.60;;;;;;4980633;28;20044;-63
2023/10/13 16:48:13;;;;;;;17.85;6.15;;;21.90;89.20;;;;;;4990491;28;20052;-64
2023/10/13 16:50:41;;;;;;;13.43;6.50;;;21.90;89.40;;;;;;4991891;28;20042;-64
2023/10/13 16:53:07;;;;;;;11.30;5.93;;;21.80;88.60;;;;;;4986701;28;20034;-63